sensor_id;sensor_type;location;lat;lon;timestamp;pressure;altitude;pressure_sealevel;temperature;humidity
59106;BME280;44891;50.204;8.132;2022-10-03T00:01:56;99047.59;;;9.18;100.00
59106;BME280;44891;50.204;8.132;2022-10-03T00:06:09;99046.59;;;9.19;100.00
59106;BME280;44891;50.204;8.132;2022-10-03T00:10:21;99035.13;;;9.13;100.00
59106;BME280;44891;50.204;8.132;2022-10-03T00:14:33;99048.22;;;9.13;100.00
59106;BME280;44891;50.204;8.132;2022-10-03T00:18:51;99043.56;;;9.15;100.00
59106;BME280;44891;50.204;8.132;2022-10-03T00:23:03;99053.03;;;9.16;100.00
59106;BME280;44891;50.204;8.132;2022-10-03T00:27:13;99050.22;;;9.18;100.00
59106;BME280;44891;50.204;8.132;2022-10-03T00:31:23;99055.50;;;9.11;100.00
59106;BME280;44891;50.204;8.132;2022-10-03T00:35:44;99058.72;;;9.13;100.00
59106;BME280;44891;50.204;8.132;2022-10-03T00:44:41;99064.19;;;9.05;100.00
59106;BME280;44891;50.204;8.132;2022-10-03T00:53:32;99078.53;;;8.89;100.00
59106;BME280;44891;50.204;8.132;2022-10-03T00:58:05;99079.34;;;8.77;100.00
59106;BME280;44891;50.204;8.132;2022-10-03T01:02:33;99081.38;;;8.75;100.00
59106;BME280;44891;50.204;8.132;2022-10-03T01:06:45;99087.88;;;8.59;100.00
59106;BME280;44891;50.204;8.132;2022-10-03T01:10:51;99105.38;;;8.52;100.00
59106;BME280;44891;50.204;8.132;2022-10-03T01:15:07;99103.59;;;8.52;100.00
59106;BME280;44891;50.204;8.132;2022-10-03T01:19:30;99112.03;;;8.48;100.00
59106;BME280;44891;50.204;8.132;2022-10-03T01:23:58;99109.41;;;8.48;100.00
59106;BME280;44891;50.204;8.132;2022-10-03T01:28:28;99110.44;;;8.40;100.00
59106;BME280;44891;50.204;8.132;2022-10-03T01:32:58;99116.00;;;8.24;100.00
59106;BME280;44891;50.204;8.132;2022-10-03T01:37:06;99111.59;;;8.17;100.00
59106;BME280;44891;50.204;8.132;2022-10-03T01:41:18;99114.97;;;7.98;100.00
59106;BME280;44891;50.204;8.132;2022-10-03T01:45:28;99114.59;;;8.01;100.00
59106;BME280;44891;50.204;8.132;2022-10-03T01:49:36;99118.41;;;8.05;100.00
59106;BME280;44891;50.204;8.132;2022-10-03T01:53:47;99114.38;;;7.89;100.00
59106;BME280;44891;50.204;8.132;2022-10-03T01:57:57;99111.50;;;7.71;100.00
59106;BME280;44891;50.204;8.132;2022-10-03T02:02:08;99112.94;;;7.80;100.00
59106;BME280;44891;50.204;8.132;2022-10-03T02:06:20;99114.56;;;7.81;100.00
59106;BME280;44891;50.204;8.132;2022-10-03T02:10:35;99099.88;;;7.74;100.00
59106;BME280;44891;50.204;8.132;2022-10-03T02:14:48;99109.34;;;7.95;100.00
59106;BME280;44891;50.204;8.132;2022-10-03T02:18:59;99116.97;;;7.83;100.00
59106;BME280;44891;50.204;8.132;2022-10-03T02:23:22;99110.50;;;7.72;100.00
59106;BME280;44891;50.204;8.132;2022-10-03T02:27:40;99108.69;;;7.66;100.00
59106;BME280;44891;50.204;8.132;2022-10-03T02:32:22;99118.75;;;7.69;100.00
59106;BME280;44891;50.204;8.132;2022-10-03T02:41:47;99108.94;;;7.98;100.00
59106;BME280;44891;50.204;8.132;2022-10-03T02:46:12;99122.00;;;7.91;100.00
59106;BME280;44891;50.204;8.132;2022-10-03T02:55:05;99135.22;;;7.63;100.00
59106;BME280;44891;50.204;8.132;2022-10-03T03:04:22;99148.59;;;8.01;100.00
59106;BME280;44891;50.204;8.132;2022-10-03T03:09:09;99152.81;;;7.96;100.00
59106;BME280;44891;50.204;8.132;2022-10-03T03:18:20;99151.28;;;7.53;100.00
59106;BME280;44891;50.204;8.132;2022-10-03T03:22:35;99156.50;;;7.53;100.00
59106;BME280;44891;50.204;8.132;2022-10-03T03:26:50;99160.31;;;7.57;100.00
59106;BME280;44891;50.204;8.132;2022-10-03T03:31:04;99168.81;;;7.66;100.00
59106;BME280;44891;50.204;8.132;2022-10-03T03:35:18;99160.41;;;7.84;100.00
59106;BME280;44891;50.204;8.132;2022-10-03T03:39:37;99161.44;;;7.89;100.00
59106;BME280;44891;50.204;8.132;2022-10-03T03:43:56;99159.84;;;7.95;100.00
59106;BME280;44891;50.204;8.132;2022-10-03T03:52:49;99161.94;;;8.20;100.00
59106;BME280;44891;50.204;8.132;2022-10-03T03:57:16;99177.19;;;8.03;100.00
59106;BME280;44891;50.204;8.132;2022-10-03T04:01:39;99182.84;;;8.20;100.00
59106;BME280;44891;50.204;8.132;2022-10-03T04:06:00;99174.66;;;8.42;100.00
59106;BME280;44891;50.204;8.132;2022-10-03T04:10:30;99184.88;;;8.31;100.00
59106;BME280;44891;50.204;8.132;2022-10-03T04:14:52;99190.09;;;8.31;100.00
59106;BME280;44891;50.204;8.132;2022-10-03T04:19:05;99185.94;;;8.50;100.00
59106;BME280;44891;50.204;8.132;2022-10-03T04:23:23;99190.94;;;8.44;100.00
59106;BME280;44891;50.204;8.132;2022-10-03T04:27:43;99185.84;;;8.16;100.00
59106;BME280;44891;50.204;8.132;2022-10-03T04:31:58;99187.25;;;8.06;100.00
59106;BME280;44891;50.204;8.132;2022-10-03T04:36:30;99183.63;;;8.07;100.00
59106;BME280;44891;50.204;8.132;2022-10-03T04:40:44;99187.84;;;8.01;100.00
59106;BME280;44891;50.204;8.132;2022-10-03T04:45:03;99184.84;;;8.17;100.00
59106;BME280;44891;50.204;8.132;2022-10-03T04:49:17;99189.31;;;8.30;100.00
59106;BME280;44891;50.204;8.132;2022-10-03T04:53:27;99191.72;;;8.32;100.00
59106;BME280;44891;50.204;8.132;2022-10-03T04:57:46;99188.16;;;8.39;100.00
59106;BME280;44891;50.204;8.132;2022-10-03T05:01:54;99197.13;;;8.24;100.00
59106;BME280;44891;50.204;8.132;2022-10-03T05:06:00;99201.19;;;8.33;100.00
59106;BME280;44891;50.204;8.132;2022-10-03T05:10:22;99196.56;;;8.35;100.00
59106;BME280;44891;50.204;8.132;2022-10-03T05:14:42;99188.97;;;8.53;100.00
59106;BME280;44891;50.204;8.132;2022-10-03T05:18:54;99199.03;;;8.69;100.00
59106;BME280;44891;50.204;8.132;2022-10-03T05:23:03;99196.19;;;8.51;100.00
59106;BME280;44891;50.204;8.132;2022-10-03T05:27:21;99197.63;;;8.40;100.00
59106;BME280;44891;50.204;8.132;2022-10-03T05:31:41;99202.44;;;8.63;100.00
59106;BME280;44891;50.204;8.132;2022-10-03T05:35:53;99191.97;;;8.70;100.00
59106;BME280;44891;50.204;8.132;2022-10-03T05:40:03;99205.88;;;8.84;100.00
59106;BME280;44891;50.204;8.132;2022-10-03T05:44:15;99205.88;;;8.90;100.00
59106;BME280;44891;50.204;8.132;2022-10-03T05:48:30;99218.16;;;8.83;100.00
59106;BME280;44891;50.204;8.132;2022-10-03T05:52:51;99213.72;;;8.84;100.00
59106;BME280;44891;50.204;8.132;2022-10-03T05:57:33;99216.97;;;8.79;100.00
59106;BME280;44891;50.204;8.132;2022-10-03T06:01:54;99227.63;;;8.91;100.00
59106;BME280;44891;50.204;8.132;2022-10-03T06:06:11;99229.84;;;9.14;100.00
59106;BME280;44891;50.204;8.132;2022-10-03T06:10:41;99232.03;;;9.23;100.00
59106;BME280;44891;50.204;8.132;2022-10-03T06:15:06;99240.31;;;9.27;100.00
59106;BME280;44891;50.204;8.132;2022-10-03T06:19:21;99241.53;;;9.38;100.00
59106;BME280;44891;50.204;8.132;2022-10-03T06:23:38;99247.94;;;9.42;100.00
59106;BME280;44891;50.204;8.132;2022-10-03T06:42:21;99258.13;;;9.83;100.00
59106;BME280;44891;50.204;8.132;2022-10-03T06:46:49;99258.03;;;10.03;100.00
59106;BME280;44891;50.204;8.132;2022-10-03T06:51:12;99263.72;;;10.00;100.00
59106;BME280;44891;50.204;8.132;2022-10-03T06:55:50;99260.91;;;9.95;100.00
59106;BME280;44891;50.204;8.132;2022-10-03T07:00:07;99262.88;;;10.06;100.00
59106;BME280;44891;50.204;8.132;2022-10-03T07:04:54;99267.28;;;10.19;100.00
59106;BME280;44891;50.204;8.132;2022-10-03T07:09:27;99267.47;;;10.30;100.00
59106;BME280;44891;50.204;8.132;2022-10-03T07:14:08;99267.94;;;10.52;100.00
59106;BME280;44891;50.204;8.132;2022-10-03T07:28:08;99280.63;;;10.87;100.00
59106;BME280;44891;50.204;8.132;2022-10-03T07:32:56;99285.41;;;10.97;100.00
59106;BME280;44891;50.204;8.132;2022-10-03T07:37:18;99284.66;;;11.14;100.00
59106;BME280;44891;50.204;8.132;2022-10-03T07:42:02;99294.25;;;11.27;100.00
59106;BME280;44891;50.204;8.132;2022-10-03T07:46:41;99299.63;;;11.39;100.00
59106;BME280;44891;50.204;8.132;2022-10-03T07:51:04;99302.28;;;11.57;100.00
59106;BME280;44891;50.204;8.132;2022-10-03T07:55:26;99307.75;;;11.74;99.67
59106;BME280;44891;50.204;8.132;2022-10-03T07:59:59;99311.97;;;11.82;100.00
59106;BME280;44891;50.204;8.132;2022-10-03T08:08:54;99317.09;;;11.95;97.90
59106;BME280;44891;50.204;8.132;2022-10-03T08:13:10;99321.88;;;11.80;96.75
59106;BME280;44891;50.204;8.132;2022-10-03T08:22:11;99323.44;;;11.87;98.49
59106;BME280;44891;50.204;8.132;2022-10-03T08:26:18;99323.72;;;11.79;98.18
59106;BME280;44891;50.204;8.132;2022-10-03T08:30:33;99330.53;;;11.87;97.06
59106;BME280;44891;50.204;8.132;2022-10-03T08:35:18;99329.31;;;11.89;97.40
59106;BME280;44891;50.204;8.132;2022-10-03T08:39:39;99337.66;;;12.05;96.84
59106;BME280;44891;50.204;8.132;2022-10-03T08:44:05;99331.34;;;12.24;94.11
59106;BME280;44891;50.204;8.132;2022-10-03T08:48:42;99332.38;;;12.41;94.09
59106;BME280;44891;50.204;8.132;2022-10-03T08:57:37;99325.19;;;12.30;93.79
59106;BME280;44891;50.204;8.132;2022-10-03T09:02:14;99331.69;;;12.28;93.42
59106;BME280;44891;50.204;8.132;2022-10-03T09:06:47;99343.78;;;12.35;93.87
59106;BME280;44891;50.204;8.132;2022-10-03T09:11:10;99340.47;;;12.40;94.06
59106;BME280;44891;50.204;8.132;2022-10-03T09:20:32;99343.94;;;12.70;92.39
59106;BME280;44891;50.204;8.132;2022-10-03T09:25:04;99346.91;;;12.74;91.68
59106;BME280;44891;50.204;8.132;2022-10-03T09:29:54;99339.34;;;13.07;89.63
59106;BME280;44891;50.204;8.132;2022-10-03T09:34:16;99330.69;;;13.66;87.03
59106;BME280;44891;50.204;8.132;2022-10-03T09:38:52;99336.88;;;13.95;82.04
59106;BME280;44891;50.204;8.132;2022-10-03T09:43:23;99342.59;;;13.92;84.31
59106;BME280;44891;50.204;8.132;2022-10-03T09:48:03;99347.06;;;13.32;84.47
59106;BME280;44891;50.204;8.132;2022-10-03T09:52:25;99351.09;;;13.23;85.44
59106;BME280;44891;50.204;8.132;2022-10-03T09:57:14;99344.06;;;13.17;85.70
59106;BME280;44891;50.204;8.132;2022-10-03T10:01:29;99349.75;;;13.02;86.67
59106;BME280;44891;50.204;8.132;2022-10-03T10:15:03;99339.34;;;13.19;85.94
59106;BME280;44891;50.204;8.132;2022-10-03T10:19:25;99339.88;;;13.28;85.10
59106;BME280;44891;50.204;8.132;2022-10-03T10:23:41;99334.22;;;13.24;84.73
59106;BME280;44891;50.204;8.132;2022-10-03T10:28:09;99329.19;;;13.58;84.62
59106;BME280;44891;50.204;8.132;2022-10-03T10:33:02;99337.56;;;13.78;81.75
59106;BME280;44891;50.204;8.132;2022-10-03T10:42:14;99330.06;;;14.39;77.65
59106;BME280;44891;50.204;8.132;2022-10-03T10:46:51;99327.19;;;14.52;76.56
59106;BME280;44891;50.204;8.132;2022-10-03T10:51:37;99332.53;;;14.69;76.30
59106;BME280;44891;50.204;8.132;2022-10-03T11:00:24;99317.84;;;14.61;72.78
59106;BME280;44891;50.204;8.132;2022-10-03T11:05:24;99312.13;;;14.81;71.32
59106;BME280;44891;50.204;8.132;2022-10-03T11:09:51;99300.59;;;21.77;53.83
59106;BME280;44891;50.204;8.132;2022-10-03T11:14:30;99308.22;;;28.20;35.66
59106;BME280;44891;50.204;8.132;2022-10-03T11:23:29;99332.13;;;18.87;48.51
59106;BME280;44891;50.204;8.132;2022-10-03T11:27:54;99332.00;;;17.04;55.70
59106;BME280;44891;50.204;8.132;2022-10-03T11:32:18;99328.63;;;16.11;59.66
59106;BME280;44891;50.204;8.132;2022-10-03T11:36:59;99332.03;;;15.68;60.96
59106;BME280;44891;50.204;8.132;2022-10-03T11:41:13;99324.81;;;15.13;64.96
59106;BME280;44891;50.204;8.132;2022-10-03T11:45:25;99332.09;;;14.89;66.31
59106;BME280;44891;50.204;8.132;2022-10-03T11:50:01;99317.09;;;14.94;65.79
59106;BME280;44891;50.204;8.132;2022-10-03T11:54:18;99317.06;;;14.78;65.97
59106;BME280;44891;50.204;8.132;2022-10-03T11:58:31;99316.09;;;14.67;65.90
59106;BME280;44891;50.204;8.132;2022-10-03T12:02:54;99317.34;;;14.48;67.49
59106;BME280;44891;50.204;8.132;2022-10-03T12:07:03;99309.53;;;14.69;67.32
59106;BME280;44891;50.204;8.132;2022-10-03T12:11:26;99303.38;;;14.81;66.11
59106;BME280;44891;50.204;8.132;2022-10-03T12:15:34;99308.94;;;14.96;65.65
59106;BME280;44891;50.204;8.132;2022-10-03T12:19:49;99295.34;;;14.76;65.89
59106;BME280;44891;50.204;8.132;2022-10-03T12:24:01;99293.13;;;14.84;65.27
59106;BME280;44891;50.204;8.132;2022-10-03T12:28:11;99292.75;;;14.92;65.57
59106;BME280;44891;50.204;8.132;2022-10-03T12:32:26;99297.00;;;14.93;65.83
59106;BME280;44891;50.204;8.132;2022-10-03T12:36:39;99292.47;;;14.60;64.63
59106;BME280;44891;50.204;8.132;2022-10-03T12:40:51;99281.81;;;14.43;66.61
59106;BME280;44891;50.204;8.132;2022-10-03T12:45:01;99280.75;;;14.45;65.13
59106;BME280;44891;50.204;8.132;2022-10-03T12:49:10;99270.41;;;14.55;66.61
59106;BME280;44891;50.204;8.132;2022-10-03T12:53:24;99274.44;;;14.91;64.95
59106;BME280;44891;50.204;8.132;2022-10-03T12:57:45;99274.91;;;14.71;64.01
59106;BME280;44891;50.204;8.132;2022-10-03T13:02:15;99268.94;;;14.92;64.21
59106;BME280;44891;50.204;8.132;2022-10-03T13:06:43;99270.50;;;14.77;64.61
59106;BME280;44891;50.204;8.132;2022-10-03T13:10:55;99268.75;;;15.16;64.06
59106;BME280;44891;50.204;8.132;2022-10-03T13:19:49;99255.19;;;18.81;53.57
59106;BME280;44891;50.204;8.132;2022-10-03T13:23:57;99252.59;;;19.86;50.81
59106;BME280;44891;50.204;8.132;2022-10-03T13:28:07;99252.69;;;21.33;47.10
59106;BME280;44891;50.204;8.132;2022-10-03T13:32:20;99261.06;;;20.08;49.04
59106;BME280;44891;50.204;8.132;2022-10-03T13:36:29;99263.44;;;19.25;50.99
59106;BME280;44891;50.204;8.132;2022-10-03T13:40:38;99265.25;;;18.38;53.39
59106;BME280;44891;50.204;8.132;2022-10-03T13:44:48;99260.09;;;25.38;40.61
59106;BME280;44891;50.204;8.132;2022-10-03T13:48:57;99260.41;;;27.91;34.10
59106;BME280;44891;50.204;8.132;2022-10-03T13:53:04;99269.84;;;24.08;38.81
59106;BME280;44891;50.204;8.132;2022-10-03T13:57:10;99270.09;;;21.25;44.37
59106;BME280;44891;50.204;8.132;2022-10-03T14:01:29;99266.44;;;22.36;43.15
59106;BME280;44891;50.204;8.132;2022-10-03T14:05:54;99269.78;;;19.44;47.72
59106;BME280;44891;50.204;8.132;2022-10-03T14:10:11;99266.59;;;18.45;52.03
59106;BME280;44891;50.204;8.132;2022-10-03T14:14:44;99257.84;;;19.21;50.44
59106;BME280;44891;50.204;8.132;2022-10-03T14:18:57;99254.44;;;24.63;38.49
59106;BME280;44891;50.204;8.132;2022-10-03T14:23:13;99252.13;;;25.24;37.24
59106;BME280;44891;50.204;8.132;2022-10-03T14:27:40;99255.81;;;21.64;42.94
59106;BME280;44891;50.204;8.132;2022-10-03T14:31:47;99252.25;;;19.23;48.36
59106;BME280;44891;50.204;8.132;2022-10-03T14:36:06;99244.16;;;18.06;52.53
59106;BME280;44891;50.204;8.132;2022-10-03T14:40:15;99246.66;;;17.70;53.24
59106;BME280;44891;50.204;8.132;2022-10-03T14:44:19;99245.53;;;17.61;54.68
59106;BME280;44891;50.204;8.132;2022-10-03T14:48:27;99243.38;;;18.10;53.95
59106;BME280;44891;50.204;8.132;2022-10-03T14:52:35;99242.84;;;17.51;54.76
59106;BME280;44891;50.204;8.132;2022-10-03T14:56:41;99237.16;;;17.32;55.20
59106;BME280;44891;50.204;8.132;2022-10-03T15:00:46;99240.34;;;16.97;55.24
59106;BME280;44891;50.204;8.132;2022-10-03T15:04:51;99227.84;;;17.29;55.81
59106;BME280;44891;50.204;8.132;2022-10-03T15:08:57;99219.13;;;16.97;56.72
59106;BME280;44891;50.204;8.132;2022-10-03T15:13:05;99221.25;;;16.95;57.62
59106;BME280;44891;50.204;8.132;2022-10-03T15:17:16;99215.72;;;17.44;55.64
59106;BME280;44891;50.204;8.132;2022-10-03T15:21:19;99210.88;;;17.30;55.66
59106;BME280;44891;50.204;8.132;2022-10-03T15:25:26;99213.25;;;16.57;56.87
59106;BME280;44891;50.204;8.132;2022-10-03T15:29:32;99217.25;;;16.33;57.91
59106;BME280;44891;50.204;8.132;2022-10-03T15:33:36;99219.47;;;15.70;60.34
59106;BME280;44891;50.204;8.132;2022-10-03T15:37:41;99212.69;;;15.58;60.63
59106;BME280;44891;50.204;8.132;2022-10-03T15:41:51;99215.06;;;15.37;61.05
59106;BME280;44891;50.204;8.132;2022-10-03T15:45:54;99210.06;;;15.19;62.19
59106;BME280;44891;50.204;8.132;2022-10-03T15:50:00;99217.72;;;15.37;63.01
59106;BME280;44891;50.204;8.132;2022-10-03T15:54:05;99209.19;;;15.13;64.18
59106;BME280;44891;50.204;8.132;2022-10-03T15:58:15;99208.72;;;15.00;64.20
59106;BME280;44891;50.204;8.132;2022-10-03T16:02:20;99186.44;;;14.79;67.41
59106;BME280;44891;50.204;8.132;2022-10-03T16:06:27;99195.91;;;14.75;67.63
59106;BME280;44891;50.204;8.132;2022-10-03T16:10:36;99186.31;;;14.68;69.34
59106;BME280;44891;50.204;8.132;2022-10-03T16:14:42;99183.81;;;14.79;69.68
59106;BME280;44891;50.204;8.132;2022-10-03T16:18:50;99191.97;;;14.94;67.60
59106;BME280;44891;50.204;8.132;2022-10-03T16:22:55;99187.66;;;14.88;67.20
59106;BME280;44891;50.204;8.132;2022-10-03T16:27:06;99185.97;;;14.65;68.83
59106;BME280;44891;50.204;8.132;2022-10-03T16:31:16;99184.16;;;14.37;71.04
59106;BME280;44891;50.204;8.132;2022-10-03T16:35:29;99183.13;;;14.21;73.15
59106;BME280;44891;50.204;8.132;2022-10-03T16:39:34;99184.09;;;14.03;75.56
59106;BME280;44891;50.204;8.132;2022-10-03T16:43:37;99189.13;;;13.88;75.58
59106;BME280;44891;50.204;8.132;2022-10-03T16:47:41;99177.16;;;13.85;75.86
59106;BME280;44891;50.204;8.132;2022-10-03T16:51:45;99164.97;;;13.68;76.95
59106;BME280;44891;50.204;8.132;2022-10-03T16:55:54;99151.41;;;13.64;76.86
59106;BME280;44891;50.204;8.132;2022-10-03T17:00:00;99166.28;;;13.42;79.28
59106;BME280;44891;50.204;8.132;2022-10-03T17:04:18;99154.53;;;13.21;82.07
59106;BME280;44891;50.204;8.132;2022-10-03T17:08:25;99153.78;;;13.14;83.06
59106;BME280;44891;50.204;8.132;2022-10-03T17:12:30;99156.31;;;12.85;84.79
59106;BME280;44891;50.204;8.132;2022-10-03T17:16:36;99163.09;;;12.69;86.36
59106;BME280;44891;50.204;8.132;2022-10-03T17:20:48;99165.47;;;12.59;86.31
59106;BME280;44891;50.204;8.132;2022-10-03T17:24:53;99155.50;;;12.49;86.04
59106;BME280;44891;50.204;8.132;2022-10-03T17:29:02;99154.91;;;12.36;88.07
59106;BME280;44891;50.204;8.132;2022-10-03T17:33:15;99159.41;;;12.59;85.83
59106;BME280;44891;50.204;8.132;2022-10-03T17:37:50;99167.88;;;12.49;86.42
59106;BME280;44891;50.204;8.132;2022-10-03T17:42:00;99155.97;;;12.05;88.69
59106;BME280;44891;50.204;8.132;2022-10-03T17:46:12;99161.13;;;11.81;89.37
59106;BME280;44891;50.204;8.132;2022-10-03T17:50:23;99166.63;;;11.61;90.53
59106;BME280;44891;50.204;8.132;2022-10-03T17:54:29;99166.50;;;11.38;91.43
59106;BME280;44891;50.204;8.132;2022-10-03T17:58:34;99167.44;;;11.25;92.18
59106;BME280;44891;50.204;8.132;2022-10-03T18:02:43;99137.34;;;11.21;90.88
59106;BME280;44891;50.204;8.132;2022-10-03T18:06:49;99161.47;;;11.18;91.10
59106;BME280;44891;50.204;8.132;2022-10-03T18:10:56;99154.94;;;11.02;91.75
59106;BME280;44891;50.204;8.132;2022-10-03T18:15:25;99151.84;;;10.87;92.71
59106;BME280;44891;50.204;8.132;2022-10-03T18:19:48;99151.91;;;10.80;92.19
59106;BME280;44891;50.204;8.132;2022-10-03T18:24:20;99151.56;;;10.52;93.41
59106;BME280;44891;50.204;8.132;2022-10-03T18:28:27;99160.00;;;10.22;94.82
59106;BME280;44891;50.204;8.132;2022-10-03T18:32:36;99147.44;;;10.38;94.02
59106;BME280;44891;50.204;8.132;2022-10-03T18:36:43;99140.63;;;10.23;93.69
59106;BME280;44891;50.204;8.132;2022-10-03T18:40:51;99149.38;;;10.17;93.46
59106;BME280;44891;50.204;8.132;2022-10-03T18:44:57;99146.38;;;10.07;94.17
59106;BME280;44891;50.204;8.132;2022-10-03T18:49:03;99160.53;;;10.06;93.51
59106;BME280;44891;50.204;8.132;2022-10-03T18:53:15;99151.94;;;9.92;94.10
59106;BME280;44891;50.204;8.132;2022-10-03T18:57:21;99155.19;;;9.88;94.68
59106;BME280;44891;50.204;8.132;2022-10-03T19:01:30;99154.84;;;9.77;93.72
59106;BME280;44891;50.204;8.132;2022-10-03T19:05:41;99157.81;;;9.88;93.22
59106;BME280;44891;50.204;8.132;2022-10-03T19:14:24;99138.72;;;9.67;93.02
59106;BME280;44891;50.204;8.132;2022-10-03T19:18:39;99143.28;;;9.40;94.19
59106;BME280;44891;50.204;8.132;2022-10-03T19:22:53;99145.53;;;9.23;94.70
59106;BME280;44891;50.204;8.132;2022-10-03T19:26:58;99127.59;;;9.27;93.74
59106;BME280;44891;50.204;8.132;2022-10-03T19:31:04;99137.16;;;9.02;95.96
59106;BME280;44891;50.204;8.132;2022-10-03T19:35:11;99132.94;;;8.94;96.33
59106;BME280;44891;50.204;8.132;2022-10-03T19:39:15;99135.78;;;8.86;96.22
59106;BME280;44891;50.204;8.132;2022-10-03T19:43:36;99134.34;;;8.90;96.85
59106;BME280;44891;50.204;8.132;2022-10-03T19:47:42;99127.88;;;8.99;95.37
59106;BME280;44891;50.204;8.132;2022-10-03T19:51:51;99129.13;;;8.77;96.54
59106;BME280;44891;50.204;8.132;2022-10-03T19:56:12;99130.53;;;8.86;95.54
59106;BME280;44891;50.204;8.132;2022-10-03T20:00:25;99136.56;;;8.86;95.25
59106;BME280;44891;50.204;8.132;2022-10-03T20:04:32;99133.19;;;8.59;95.70
59106;BME280;44891;50.204;8.132;2022-10-03T20:08:40;99125.34;;;8.46;96.19
59106;BME280;44891;50.204;8.132;2022-10-03T20:12:48;99128.94;;;8.52;95.70
59106;BME280;44891;50.204;8.132;2022-10-03T20:16:53;99120.91;;;8.53;95.16
59106;BME280;44891;50.204;8.132;2022-10-03T20:20:58;99116.22;;;8.29;96.03
59106;BME280;44891;50.204;8.132;2022-10-03T20:25:06;99113.19;;;8.32;96.49
59106;BME280;44891;50.204;8.132;2022-10-03T20:29:24;99117.44;;;8.20;96.49
59106;BME280;44891;50.204;8.132;2022-10-03T20:33:29;99109.56;;;8.06;97.00
59106;BME280;44891;50.204;8.132;2022-10-03T20:37:46;99126.06;;;8.00;98.93
59106;BME280;44891;50.204;8.132;2022-10-03T20:41:58;99117.63;;;8.11;98.03
59106;BME280;44891;50.204;8.132;2022-10-03T20:46:05;99114.63;;;8.14;98.31
59106;BME280;44891;50.204;8.132;2022-10-03T20:50:21;99117.63;;;8.18;97.66
59106;BME280;44891;50.204;8.132;2022-10-03T20:54:25;99100.72;;;8.01;97.67
59106;BME280;44891;50.204;8.132;2022-10-03T20:58:33;99121.44;;;8.15;96.90
59106;BME280;44891;50.204;8.132;2022-10-03T21:02:41;99125.00;;;7.75;96.38
59106;BME280;44891;50.204;8.132;2022-10-03T21:06:52;99126.19;;;7.72;97.28
59106;BME280;44891;50.204;8.132;2022-10-03T21:10:59;99120.59;;;7.82;97.65
59106;BME280;44891;50.204;8.132;2022-10-03T21:15:11;99116.34;;;7.74;97.81
59106;BME280;44891;50.204;8.132;2022-10-03T21:19:15;99111.13;;;7.74;96.92
59106;BME280;44891;50.204;8.132;2022-10-03T21:23:21;99102.88;;;7.77;96.44
59106;BME280;44891;50.204;8.132;2022-10-03T21:27:25;99124.00;;;7.76;96.22
59106;BME280;44891;50.204;8.132;2022-10-03T21:31:35;99114.88;;;7.58;96.83
59106;BME280;44891;50.204;8.132;2022-10-03T21:35:42;99120.66;;;7.41;98.50
59106;BME280;44891;50.204;8.132;2022-10-03T21:39:57;99107.22;;;7.50;98.26
59106;BME280;44891;50.204;8.132;2022-10-03T21:44:04;99109.47;;;7.53;97.09
59106;BME280;44891;50.204;8.132;2022-10-03T21:48:20;99113.56;;;7.28;96.29
59106;BME280;44891;50.204;8.132;2022-10-03T21:52:36;99108.91;;;7.17;97.20
59106;BME280;44891;50.204;8.132;2022-10-03T21:56:56;99115.13;;;7.16;98.44
59106;BME280;44891;50.204;8.132;2022-10-03T22:01:09;99108.97;;;7.30;98.15
59106;BME280;44891;50.204;8.132;2022-10-03T22:05:23;99098.13;;;7.33;97.95
59106;BME280;44891;50.204;8.132;2022-10-03T22:09:27;99089.97;;;7.08;97.76
59106;BME280;44891;50.204;8.132;2022-10-03T22:13:33;99075.03;;;6.95;98.23
59106;BME280;44891;50.204;8.132;2022-10-03T22:17:41;99083.44;;;6.91;98.96
59106;BME280;44891;50.204;8.132;2022-10-03T22:21:56;99084.44;;;6.90;98.51
59106;BME280;44891;50.204;8.132;2022-10-03T22:26:09;99067.47;;;7.07;97.82
59106;BME280;44891;50.204;8.132;2022-10-03T22:30:16;99064.38;;;6.90;98.77
59106;BME280;44891;50.204;8.132;2022-10-03T22:34:26;99065.41;;;6.96;99.22
59106;BME280;44891;50.204;8.132;2022-10-03T22:38:34;99067.81;;;6.97;97.99
59106;BME280;44891;50.204;8.132;2022-10-03T22:42:40;99064.59;;;6.95;98.07
59106;BME280;44891;50.204;8.132;2022-10-03T22:46:47;99059.69;;;6.79;96.91
59106;BME280;44891;50.204;8.132;2022-10-03T22:50:52;99048.31;;;6.93;96.67
59106;BME280;44891;50.204;8.132;2022-10-03T22:54:56;99053.06;;;6.76;96.75
59106;BME280;44891;50.204;8.132;2022-10-03T22:59:01;99046.22;;;6.41;97.79
59106;BME280;44891;50.204;8.132;2022-10-03T23:03:07;99045.25;;;6.48;97.38
59106;BME280;44891;50.204;8.132;2022-10-03T23:07:23;99045.06;;;6.50;97.41
59106;BME280;44891;50.204;8.132;2022-10-03T23:11:32;99043.53;;;6.62;96.11
59106;BME280;44891;50.204;8.132;2022-10-03T23:15:36;99034.22;;;6.53;96.20
59106;BME280;44891;50.204;8.132;2022-10-03T23:19:48;99035.50;;;6.64;96.03
59106;BME280;44891;50.204;8.132;2022-10-03T23:24:02;99017.63;;;6.61;95.50
59106;BME280;44891;50.204;8.132;2022-10-03T23:28:16;99012.59;;;6.59;95.44
59106;BME280;44891;50.204;8.132;2022-10-03T23:32:50;99008.56;;;6.57;94.80
59106;BME280;44891;50.204;8.132;2022-10-03T23:37:01;99003.84;;;6.39;94.34
59106;BME280;44891;50.204;8.132;2022-10-03T23:41:08;99010.53;;;6.48;94.51
59106;BME280;44891;50.204;8.132;2022-10-03T23:45:16;99009.25;;;6.37;95.71
59106;BME280;44891;50.204;8.132;2022-10-03T23:49:20;99009.25;;;6.37;97.36
59106;BME280;44891;50.204;8.132;2022-10-03T23:53:30;98992.84;;;6.43;99.00
59106;BME280;44891;50.204;8.132;2022-10-03T23:57:36;99004.03;;;6.37;99.96
